createdAt,value
2022-11-29T00:00:29.389Z,5.34
2022-11-29T00:02:57.408Z,5.35
2022-11-29T00:05:24.032Z,5.34
2022-11-29T00:07:50.660Z,5.29
2022-11-29T00:10:17.673Z,5.33
2022-11-29T00:12:46.513Z,5.32
2022-11-29T00:15:13.267Z,5.33
2022-11-29T00:17:39.881Z,5.34
2022-11-29T00:20:12.057Z,5.32
2022-11-29T00:22:39.612Z,5.35
2022-11-29T00:25:07.347Z,5.36
2022-11-29T00:27:33.958Z,5.37
2022-11-29T00:30:00.513Z,5.38
2022-11-29T00:32:27.056Z,5.39
2022-11-29T00:34:53.619Z,5.39
2022-11-29T00:37:21.487Z,5.39
2022-11-29T00:39:48.053Z,5.39
2022-11-29T00:42:15.512Z,5.39
2022-11-29T00:44:42.283Z,5.40
2022-11-29T00:47:09.282Z,5.39
2022-11-29T00:49:35.847Z,5.40
2022-11-29T00:52:02.387Z,5.41
2022-11-29T00:54:30.528Z,5.41
2022-11-29T00:56:57.073Z,5.41
2022-11-29T00:59:23.632Z,5.41
2022-11-29T01:01:50.386Z,5.41
2022-11-29T01:04:17.410Z,5.43
2022-11-29T01:06:43.979Z,5.43
2022-11-29T01:09:10.511Z,5.44
2022-11-29T01:11:38.456Z,5.45
2022-11-29T01:14:05.093Z,5.43
2022-11-29T01:16:32.851Z,5.43
2022-11-29T01:19:00.382Z,5.44
2022-11-29T01:21:27.077Z,5.44
2022-11-29T01:23:54.112Z,5.45
2022-11-29T01:26:22.081Z,5.45
2022-11-29T01:28:51.942Z,5.46
2022-11-29T01:31:20.807Z,5.46
2022-11-29T01:33:47.430Z,5.45
2022-11-29T01:36:14.370Z,5.47
2022-11-29T01:38:42.419Z,5.46
2022-11-29T01:41:12.588Z,5.48
2022-11-29T01:43:57.271Z,5.50
2022-11-29T01:46:23.953Z,5.49
2022-11-29T01:48:54.502Z,5.49
2022-11-29T01:51:21.715Z,5.49
2022-11-29T01:53:48.444Z,5.50
2022-11-29T01:56:16.138Z,5.41
2022-11-29T01:58:44.891Z,5.48
2022-11-29T02:01:13.910Z,5.46
2022-11-29T02:03:40.692Z,5.48
2022-11-29T02:06:07.949Z,5.51
2022-11-29T02:08:39.028Z,5.52
2022-11-29T02:11:46.380Z,5.51
2022-11-29T02:14:30.631Z,5.51
2022-11-29T02:17:06.888Z,5.54
2022-11-29T02:20:05.616Z,5.44
2022-11-29T02:22:37.509Z,5.44
2022-11-29T02:25:19.708Z,5.52
2022-11-29T02:28:24.676Z,5.50
2022-11-29T02:31:08.926Z,5.51
2022-11-29T02:33:57.356Z,5.53
2022-11-29T02:36:37.192Z,5.51
2022-11-29T02:39:19.789Z,5.52
2022-11-29T02:42:05.657Z,5.52
2022-11-29T02:44:52.205Z,5.53
2022-11-29T02:47:26.982Z,5.52
2022-11-29T02:50:08.993Z,5.51
2022-11-29T02:52:41.226Z,5.53
2022-11-29T02:55:15.982Z,5.54
2022-11-29T02:57:50.031Z,5.51
2022-11-29T03:00:20.179Z,5.54
2022-11-29T03:02:53.244Z,5.54
2022-11-29T03:05:30.630Z,5.56
2022-11-29T03:08:06.241Z,5.56
2022-11-29T03:10:45.088Z,5.56
2022-11-29T03:13:20.129Z,5.55
2022-11-29T03:15:57.576Z,5.55
2022-11-29T03:18:34.931Z,5.56
2022-11-29T03:21:12.516Z,5.55
2022-11-29T03:23:45.809Z,5.55
2022-11-29T03:26:17.614Z,5.57
2022-11-29T03:28:51.057Z,5.55
2022-11-29T03:31:25.157Z,5.57
2022-11-29T03:33:58.166Z,5.56
2022-11-29T03:36:35.748Z,5.57
2022-11-29T03:39:05.422Z,5.60
2022-11-29T03:41:35.150Z,5.60
2022-11-29T03:44:09.463Z,5.59
2022-11-29T03:46:42.179Z,5.59
2022-11-29T03:49:16.317Z,5.56
2022-11-29T03:51:54.565Z,5.55
2022-11-29T03:54:27.875Z,5.56
2022-11-29T03:56:55.274Z,5.58
2022-11-29T03:59:44.619Z,5.57
2022-11-29T04:02:40.920Z,5.59
2022-11-29T04:05:25.249Z,5.58
2022-11-29T04:08:18.183Z,5.59
2022-11-29T04:11:18.793Z,5.60
2022-11-29T04:14:03.200Z,5.61
2022-11-29T04:17:03.874Z,5.61
2022-11-29T04:20:00.455Z,5.59
2022-11-29T04:23:08.735Z,5.60
2022-11-29T04:25:53.863Z,5.63
2022-11-29T04:28:55.693Z,5.62
2022-11-29T04:31:35.823Z,5.61
2022-11-29T04:34:31.127Z,5.60
2022-11-29T04:37:25.083Z,5.62
2022-11-29T04:40:23.623Z,5.63
2022-11-29T04:43:14.993Z,5.62
2022-11-29T04:46:03.567Z,5.61
2022-11-29T04:48:49.425Z,5.60
2022-11-29T04:51:26.048Z,5.63
2022-11-29T04:53:58.141Z,5.62
2022-11-29T04:56:35.857Z,5.66
2022-11-29T04:59:09.930Z,5.64
2022-11-29T05:01:50.995Z,5.63
2022-11-29T05:04:23.439Z,5.64
2022-11-29T05:07:02.800Z,5.64
2022-11-29T05:09:42.245Z,5.63
2022-11-29T05:12:17.784Z,5.63
2022-11-29T05:15:01.760Z,5.64
2022-11-29T05:17:38.132Z,5.65
2022-11-29T05:20:18.324Z,5.65
2022-11-29T05:23:04.326Z,5.65
2022-11-29T05:25:42.391Z,5.66
2022-11-29T05:28:20.370Z,5.66
2022-11-29T05:31:23.754Z,5.63
2022-11-29T05:34:08.457Z,5.63
2022-11-29T05:36:43.417Z,5.64
2022-11-29T05:39:31.222Z,5.63
2022-11-29T05:42:17.747Z,5.63
2022-11-29T05:44:49.521Z,5.64
2022-11-29T05:47:24.669Z,5.68
2022-11-29T05:50:03.998Z,5.66
2022-11-29T05:52:41.901Z,5.63
2022-11-29T05:55:22.369Z,5.64
2022-11-29T05:57:55.743Z,5.63
2022-11-29T06:00:24.865Z,5.67
2022-11-29T06:02:59.010Z,5.63
2022-11-29T06:05:32.266Z,5.65
2022-11-29T06:08:05.159Z,5.65
2022-11-29T06:10:35.890Z,5.65
2022-11-29T06:13:12.896Z,5.69
2022-11-29T06:16:18.814Z,5.67
2022-11-29T06:19:11.093Z,5.64
2022-11-29T06:21:45.059Z,5.65
2022-11-29T06:24:26.326Z,5.68
2022-11-29T06:27:10.578Z,5.66
2022-11-29T06:29:44.763Z,5.65
2022-11-29T06:32:25.207Z,5.67
2022-11-29T06:34:56.663Z,5.67
2022-11-29T06:37:27.422Z,5.67
2022-11-29T06:39:54.784Z,5.67
2022-11-29T06:42:21.548Z,5.72
2022-11-29T06:44:48.740Z,5.66
2022-11-29T06:47:22.751Z,5.70
2022-11-29T06:49:54.515Z,5.68
2022-11-29T06:52:29.977Z,5.68
2022-11-29T06:55:08.228Z,5.23
2022-11-29T06:57:47.170Z,5.50
2022-11-29T07:00:18.069Z,5.61
2022-11-29T07:02:59.398Z,5.66
2022-11-29T07:05:28.320Z,5.67
2022-11-29T07:07:57.877Z,5.67
2022-11-29T07:10:25.229Z,5.66
2022-11-29T07:12:52.431Z,5.68
2022-11-29T07:15:21.727Z,5.65
2022-11-29T07:18:02.431Z,5.70
2022-11-29T07:20:38.515Z,5.71
2022-11-29T07:23:15.177Z,5.68
2022-11-29T07:25:53.125Z,5.68
2022-11-29T07:28:31.993Z,5.72
2022-11-29T07:31:05.191Z,5.64
2022-11-29T07:33:41.945Z,5.20
2022-11-29T07:36:14.376Z,5.51
2022-11-29T07:38:55.555Z,5.61
2022-11-29T07:41:32.031Z,5.35
2022-11-29T07:44:07.443Z,5.57
2022-11-29T07:46:34.138Z,5.64
2022-11-29T07:49:02.256Z,5.66
2022-11-29T07:51:28.864Z,5.69
2022-11-29T07:53:55.572Z,5.59
2022-11-29T07:56:22.120Z,5.68
2022-11-29T07:58:48.966Z,5.67
2022-11-29T08:01:15.638Z,5.71
2022-11-29T08:03:42.371Z,5.71
2022-11-29T08:06:10.337Z,5.69
2022-11-29T08:08:43.550Z,5.69
2022-11-29T08:11:11.512Z,5.74
2022-11-29T08:13:38.148Z,5.72
2022-11-29T08:16:05.219Z,5.72
2022-11-29T08:18:31.854Z,5.71
2022-11-29T08:20:58.447Z,5.67
2022-11-29T08:23:26.322Z,5.70
2022-11-29T08:25:59.168Z,5.68
2022-11-29T08:28:26.015Z,5.69
2022-11-29T08:31:00.456Z,5.72
2022-11-29T08:33:27.062Z,5.70
2022-11-29T08:35:53.677Z,5.74
2022-11-29T08:38:20.253Z,5.74
2022-11-29T08:40:48.331Z,5.72
2022-11-29T08:43:14.875Z,5.69
2022-11-29T08:45:41.462Z,5.72
2022-11-29T08:48:08.066Z,5.71
2022-11-29T08:50:34.601Z,5.71
2022-11-29T08:53:19.976Z,5.71
2022-11-29T08:55:47.940Z,5.71
2022-11-29T08:58:16.028Z,5.70
2022-11-29T09:00:47.028Z,5.71
2022-11-29T09:03:32.319Z,5.72
2022-11-29T09:05:59.568Z,5.73
2022-11-29T09:08:26.172Z,5.73
2022-11-29T09:10:54.866Z,5.72
2022-11-29T09:13:21.512Z,5.74
2022-11-29T09:15:48.377Z,5.72
2022-11-29T09:18:15.007Z,5.75
2022-11-29T09:20:43.796Z,5.76
2022-11-29T09:23:11.069Z,5.74
2022-11-29T09:25:37.673Z,5.72
2022-11-29T09:28:05.809Z,5.74
2022-11-29T09:30:33.980Z,5.75
2022-11-29T09:33:04.968Z,5.76
2022-11-29T09:35:32.146Z,5.75
2022-11-29T09:37:58.809Z,5.75
2022-11-29T09:40:31.449Z,5.74
2022-11-29T09:43:02.692Z,5.78
2022-11-29T09:45:36.369Z,5.80
2022-11-29T09:48:28.344Z,5.85
2022-11-29T09:51:02.883Z,5.90
2022-11-29T09:53:43.528Z,5.92
2022-11-29T09:56:18.832Z,5.97
2022-11-29T09:58:50.382Z,5.96
2022-11-29T10:01:23.385Z,5.97
2022-11-29T10:03:53.245Z,6.00
2022-11-29T10:06:24.573Z,6.02
2022-11-29T10:08:56.610Z,6.07
2022-11-29T10:11:28.319Z,6.09
2022-11-29T10:13:58.996Z,6.11
2022-11-29T10:16:36.468Z,6.15
2022-11-29T10:19:09.629Z,6.20
2022-11-29T10:21:41.559Z,6.21
2022-11-29T10:24:14.623Z,6.20
2022-11-29T10:26:43.397Z,6.21
2022-11-29T10:29:13.131Z,5.71
2022-11-29T10:31:43.977Z,6.11
2022-11-29T10:34:14.049Z,6.16
2022-11-29T10:36:43.404Z,6.06
2022-11-29T10:39:14.707Z,5.97
2022-11-29T10:41:41.564Z,5.97
2022-11-29T10:44:13.333Z,6.24
2022-11-29T10:46:41.501Z,6.33
2022-11-29T10:49:13.464Z,6.29
2022-11-29T10:51:40.069Z,6.03
2022-11-29T10:54:24.946Z,6.14
2022-11-29T10:56:52.254Z,5.96
2022-11-29T10:59:24.253Z,6.06
2022-11-29T11:01:52.548Z,6.31
2022-11-29T11:04:27.671Z,6.38
2022-11-29T11:07:00.892Z,6.29
2022-11-29T11:09:32.939Z,5.80
2022-11-29T11:12:01.650Z,5.84
2022-11-29T11:14:31.232Z,6.41
2022-11-29T11:17:15.321Z,6.53
2022-11-29T11:19:42.009Z,6.51
2022-11-29T11:22:20.729Z,6.55
2022-11-29T11:24:55.554Z,6.16
2022-11-29T11:27:29.777Z,6.49
2022-11-29T11:29:56.533Z,5.77
2022-11-29T11:32:24.504Z,6.46
2022-11-29T11:34:52.953Z,6.61
2022-11-29T11:37:22.625Z,6.62
2022-11-29T11:39:50.114Z,6.65
2022-11-29T11:42:38.866Z,6.11
2022-11-29T11:45:30.076Z,5.63
2022-11-29T11:47:59.908Z,5.86
2022-11-29T11:50:33.868Z,6.46
2022-11-29T11:53:05.124Z,6.57
2022-11-29T11:55:37.963Z,6.61
2022-11-29T11:58:16.134Z,6.50
2022-11-29T12:01:04.028Z,6.00
2022-11-29T12:03:45.677Z,6.50
2022-11-29T12:06:25.386Z,6.38
2022-11-29T12:08:53.691Z,6.22
2022-11-29T12:11:20.773Z,6.45
2022-11-29T12:13:50.720Z,6.57
2022-11-29T12:16:28.213Z,6.54
2022-11-29T12:19:02.812Z,6.55
2022-11-29T12:21:34.680Z,6.02
2022-11-29T12:24:08.942Z,6.29
2022-11-29T12:29:29.000Z,5.56
2022-11-29T12:32:10.453Z,6.13
2022-11-29T12:34:51.309Z,6.47
2022-11-29T12:37:25.029Z,6.45
2022-11-29T12:39:57.480Z,6.50
2022-11-29T12:42:39.661Z,6.47
2022-11-29T12:45:23.869Z,6.48
2022-11-29T12:47:59.102Z,6.11
2022-11-29T12:50:38.265Z,6.34
2022-11-29T12:53:23.931Z,6.00
2022-11-29T12:56:05.304Z,5.80
2022-11-29T12:58:45.832Z,6.38
2022-11-29T13:01:24.470Z,6.46
2022-11-29T13:04:03.513Z,6.47
2022-11-29T13:06:40.003Z,6.54
2022-11-29T13:09:39.009Z,6.52
2022-11-29T13:12:13.176Z,6.51
2022-11-29T13:14:49.689Z,6.49
2022-11-29T13:17:27.669Z,6.34
2022-11-29T13:19:58.463Z,6.49
2022-11-29T13:22:32.343Z,6.53
2022-11-29T13:25:01.778Z,6.54
2022-11-29T13:27:32.608Z,6.52
2022-11-29T13:30:00.408Z,6.57
2022-11-29T13:32:34.054Z,6.54
2022-11-29T13:35:05.891Z,6.54
2022-11-29T13:37:38.661Z,6.55
2022-11-29T13:40:19.940Z,6.53
2022-11-29T13:42:57.789Z,6.54
2022-11-29T13:45:30.827Z,6.55
2022-11-29T13:47:59.992Z,6.53
2022-11-29T13:50:39.659Z,6.57
2022-11-29T13:53:12.755Z,6.58
2022-11-29T13:55:45.101Z,6.56
2022-11-29T13:58:39.454Z,6.56
2022-11-29T14:01:09.392Z,6.54
2022-11-29T14:03:38.624Z,6.53
2022-11-29T14:06:14.881Z,6.56
2022-11-29T14:09:24.712Z,6.58
2022-11-29T14:12:01.481Z,6.57
2022-11-29T14:14:32.764Z,6.57
2022-11-29T14:17:01.684Z,6.57
2022-11-29T14:19:33.849Z,6.56
2022-11-29T14:22:27.979Z,6.57
2022-11-29T14:25:49.607Z,6.56
2022-11-29T14:28:30.893Z,6.56
2022-11-29T14:30:58.542Z,6.56
2022-11-29T14:33:35.067Z,6.55
2022-11-29T14:36:18.712Z,6.56
2022-11-29T14:38:53.486Z,6.55
2022-11-29T14:41:29.129Z,6.56
2022-11-29T14:44:06.479Z,6.55
2022-11-29T14:46:33.355Z,6.56
2022-11-29T14:49:01.924Z,6.55
2022-11-29T14:51:31.525Z,6.54
2022-11-29T14:54:13.218Z,6.54
2022-11-29T14:56:42.749Z,6.54
2022-11-29T14:59:42.764Z,6.56
2022-11-29T15:02:24.578Z,6.53
2022-11-29T15:04:54.783Z,6.52
2022-11-29T15:07:26.634Z,6.51
2022-11-29T15:09:57.928Z,6.49
2022-11-29T15:12:28.644Z,6.51
2022-11-29T15:15:04.303Z,6.53
2022-11-29T15:17:36.437Z,6.53
2022-11-29T15:20:22.271Z,6.52
2022-11-29T15:22:54.785Z,6.43
2022-11-29T15:25:22.723Z,6.51
2022-11-29T15:27:52.621Z,6.52
2022-11-29T15:30:21.532Z,6.51
2022-11-29T15:32:48.099Z,6.52
2022-11-29T15:35:18.487Z,6.51
2022-11-29T15:37:46.983Z,6.48
2022-11-29T15:40:15.660Z,6.51
2022-11-29T15:42:44.479Z,6.51
2022-11-29T15:45:31.262Z,6.50
2022-11-29T15:48:12.514Z,6.48
2022-11-29T15:50:44.802Z,6.47
2022-11-29T15:53:17.562Z,6.49
2022-11-29T15:55:44.803Z,6.49
2022-11-29T15:58:14.160Z,6.51
2022-11-29T16:00:44.751Z,6.41
2022-11-29T16:03:19.538Z,6.49
2022-11-29T16:05:50.576Z,6.50
2022-11-29T16:08:20.701Z,6.47
2022-11-29T16:10:52.876Z,6.46
2022-11-29T16:13:37.196Z,6.48
2022-11-29T16:16:12.439Z,6.46
2022-11-29T16:18:41.245Z,6.47
2022-11-29T16:21:20.521Z,6.49
2022-11-29T16:23:47.143Z,6.50
2022-11-29T16:26:16.527Z,6.52
2022-11-29T16:28:45.106Z,6.55
2022-11-29T16:31:18.166Z,6.57
2022-11-29T16:33:47.432Z,6.60
2022-11-29T16:36:17.406Z,6.60
2022-11-29T16:38:45.921Z,6.64
2022-11-29T16:41:23.046Z,6.67
2022-11-29T16:43:55.961Z,6.66
2022-11-29T16:46:30.796Z,6.68
2022-11-29T16:49:00.810Z,6.73
2022-11-29T16:51:37.414Z,6.72
2022-11-29T16:54:22.505Z,6.77
2022-11-29T16:56:50.029Z,6.76
2022-11-29T16:59:27.205Z,6.80
2022-11-29T17:01:56.586Z,6.78
2022-11-29T17:04:24.838Z,6.77
2022-11-29T17:06:52.795Z,6.77
2022-11-29T17:09:22.905Z,6.82
2022-11-29T17:11:49.460Z,6.84
2022-11-29T17:14:16.098Z,6.86
2022-11-29T17:16:42.797Z,6.87
2022-11-29T17:19:12.858Z,6.88
2022-11-29T17:21:39.671Z,6.87
2022-11-29T17:24:09.472Z,6.88
2022-11-29T17:26:36.038Z,6.89
2022-11-29T17:29:02.649Z,6.90
2022-11-29T17:31:29.721Z,6.90
2022-11-29T17:33:56.348Z,6.90
2022-11-29T17:36:24.236Z,6.92
2022-11-29T17:38:50.813Z,6.92
2022-11-29T17:41:21.822Z,6.94
2022-11-29T17:43:48.646Z,6.94
2022-11-29T17:46:17.712Z,6.93
2022-11-29T17:48:46.169Z,6.94
2022-11-29T17:51:43.728Z,6.95
2022-11-29T17:54:02.934Z,6.96
2022-11-29T17:56:30.265Z,6.94
2022-11-29T17:58:58.475Z,6.97
2022-11-29T18:01:26.695Z,6.98
2022-11-29T18:03:54.682Z,6.96
2022-11-29T18:06:23.213Z,6.95
2022-11-29T18:08:51.380Z,6.99
2022-11-29T18:11:21.539Z,6.99
2022-11-29T18:13:49.094Z,7.00
2022-11-29T18:16:18.768Z,7.02
2022-11-29T18:18:45.712Z,7.00
2022-11-29T18:21:13.236Z,7.02
2022-11-29T18:23:42.030Z,7.02
2022-11-29T18:26:11.739Z,7.04
2022-11-29T18:28:40.356Z,7.03
2022-11-29T18:31:08.127Z,7.02
2022-11-29T18:33:34.831Z,7.04
2022-11-29T18:36:02.960Z,7.03
2022-11-29T18:38:29.497Z,7.04
2022-11-29T18:40:56.468Z,7.03
2022-11-29T18:43:23.004Z,7.04
2022-11-29T18:45:50.896Z,7.04
2022-11-29T18:48:17.961Z,7.04
2022-11-29T18:50:44.516Z,7.04
2022-11-29T18:53:12.433Z,7.03
2022-11-29T18:55:38.982Z,7.04
2022-11-29T18:58:07.837Z,7.06
2022-11-29T19:00:34.434Z,7.06
2022-11-29T19:03:02.557Z,7.05
2022-11-29T19:05:29.127Z,7.05
2022-11-29T19:07:55.688Z,7.06
2022-11-29T19:10:22.329Z,7.05
2022-11-29T19:12:48.909Z,7.07
2022-11-29T19:15:15.537Z,7.06
2022-11-29T19:17:43.520Z,7.06
2022-11-29T19:20:12.649Z,7.06
2022-11-29T19:22:39.219Z,7.05
2022-11-29T19:25:07.232Z,7.06
2022-11-29T19:27:33.926Z,7.05
2022-11-29T19:30:00.953Z,7.04
2022-11-29T19:32:27.489Z,7.05
2022-11-29T19:34:54.079Z,7.05
2022-11-29T19:37:21.986Z,6.91
2022-11-29T19:39:48.970Z,7.00
2022-11-29T19:42:15.553Z,7.03
2022-11-29T19:45:14.701Z,7.04
2022-11-29T19:47:28.674Z,7.02
2022-11-29T19:50:00.799Z,7.04
2022-11-29T19:52:30.199Z,7.03
2022-11-29T19:54:58.026Z,7.04
2022-11-29T19:57:24.594Z,7.04
2022-11-29T19:59:51.123Z,7.04
2022-11-29T20:02:17.750Z,7.04
2022-11-29T20:04:45.609Z,7.03
2022-11-29T20:07:12.129Z,7.04
2022-11-29T20:09:40.020Z,7.04
2022-11-29T20:12:06.608Z,7.05
2022-11-29T20:14:33.195Z,7.03
2022-11-29T20:16:59.716Z,7.03
2022-11-29T20:19:26.274Z,7.02
2022-11-29T20:21:52.827Z,7.04
2022-11-29T20:24:19.519Z,7.03
2022-11-29T20:26:48.536Z,7.03
2022-11-29T20:29:15.821Z,7.01
2022-11-29T20:31:49.645Z,7.02
2022-11-29T20:34:18.557Z,7.02
2022-11-29T20:37:00.626Z,7.01
2022-11-29T20:39:36.383Z,7.03
2022-11-29T20:42:31.518Z,7.03
2022-11-29T20:44:59.796Z,7.00
2022-11-29T20:47:32.442Z,6.99
2022-11-29T20:49:59.300Z,7.00
2022-11-29T20:52:38.017Z,7.00
2022-11-29T20:55:05.643Z,7.00
2022-11-29T20:57:33.723Z,7.00
2022-11-29T21:00:00.521Z,6.99
2022-11-29T21:02:27.056Z,7.04
2022-11-29T21:04:53.583Z,6.99
2022-11-29T21:07:20.222Z,6.98
2022-11-29T21:09:46.824Z,6.99
2022-11-29T21:12:14.316Z,6.99
2022-11-29T21:14:43.985Z,6.97
2022-11-29T21:17:11.328Z,6.99
2022-11-29T21:19:39.314Z,7.00
2022-11-29T21:22:16.739Z,6.98
2022-11-29T21:24:52.986Z,6.98
2022-11-29T21:27:26.785Z,6.97
2022-11-29T21:29:55.483Z,6.97
2022-11-29T21:32:24.031Z,6.87
2022-11-29T21:34:50.840Z,6.93
2022-11-29T21:37:20.320Z,6.96
2022-11-29T21:39:48.794Z,6.66
2022-11-29T21:42:15.737Z,6.92
2022-11-29T21:44:42.268Z,6.68
2022-11-29T21:47:10.173Z,6.89
2022-11-29T21:49:36.843Z,6.95
2022-11-29T21:52:03.752Z,6.94
2022-11-29T21:54:30.414Z,6.93
2022-11-29T21:56:57.002Z,6.95
2022-11-29T21:59:24.849Z,6.93
2022-11-29T22:01:51.547Z,6.93
2022-11-29T22:04:20.039Z,6.93
2022-11-29T22:06:47.192Z,6.92
2022-11-29T22:09:13.903Z,6.91
2022-11-29T22:11:40.705Z,6.92
2022-11-29T22:14:15.106Z,6.93
2022-11-29T22:16:42.933Z,6.94
2022-11-29T22:19:12.114Z,6.92
2022-11-29T22:21:40.369Z,6.92
2022-11-29T22:24:07.724Z,6.92
2022-11-29T22:26:34.396Z,6.91
2022-11-29T22:29:01.003Z,6.92
2022-11-29T22:31:27.708Z,6.91
2022-11-29T22:33:55.088Z,6.92
2022-11-29T22:36:22.498Z,6.92
2022-11-29T22:38:50.462Z,6.91
2022-11-29T22:41:17.730Z,6.90
2022-11-29T22:43:44.849Z,6.90
2022-11-29T22:46:13.703Z,6.90
2022-11-29T22:48:42.239Z,6.90
2022-11-29T22:51:11.098Z,6.91
2022-11-29T22:53:39.638Z,6.90
2022-11-29T22:56:10.022Z,6.90
2022-11-29T22:58:37.220Z,6.89
2022-11-29T23:01:05.744Z,6.90
2022-11-29T23:03:34.551Z,6.88
2022-11-29T23:06:06.149Z,6.91
2022-11-29T23:08:33.246Z,6.90
2022-11-29T23:11:01.012Z,6.88
2022-11-29T23:13:28.897Z,6.86
2022-11-29T23:15:55.420Z,6.88
2022-11-29T23:18:21.950Z,6.87
2022-11-29T23:20:48.528Z,6.86
2022-11-29T23:23:15.071Z,6.88
2022-11-29T23:25:49.445Z,6.88
2022-11-29T23:28:16.248Z,6.86
2022-11-29T23:30:44.266Z,6.87
2022-11-29T23:33:11.171Z,6.86
2022-11-29T23:35:37.876Z,6.86
2022-11-29T23:38:04.746Z,6.40
2022-11-29T23:40:31.275Z,5.71
2022-11-29T23:42:57.812Z,6.53
2022-11-29T23:45:24.384Z,6.72
2022-11-29T23:47:52.481Z,6.79
2022-11-29T23:50:19.017Z,6.79
2022-11-29T23:52:45.591Z,6.81
2022-11-29T23:55:12.742Z,6.74
2022-11-29T23:57:39.275Z,6.81
